sensor_id;sensor_type;location;lat;lon;timestamp;P1;durP1;ratioP1;P2;durP2;ratioP2
12171;SDS011;6149;52.418;13.668;2022-09-04T00:01:24;3.00;;;1.80;;
12171;SDS011;6149;52.418;13.668;2022-09-04T00:04:08;3.70;;;1.97;;
12171;SDS011;6149;52.418;13.668;2022-09-04T00:06:46;3.40;;;2.00;;
12171;SDS011;6149;52.418;13.668;2022-09-04T00:09:26;2.60;;;2.00;;
12171;SDS011;6149;52.418;13.668;2022-09-04T00:12:04;4.10;;;1.90;;
12171;SDS011;6149;52.418;13.668;2022-09-04T00:14:36;2.90;;;1.67;;
12171;SDS011;6149;52.418;13.668;2022-09-04T00:17:09;3.00;;;1.70;;
12171;SDS011;6149;52.418;13.668;2022-09-04T00:19:47;7.13;;;1.93;;
12171;SDS011;6149;52.418;13.668;2022-09-04T00:22:23;2.60;;;1.80;;
12171;SDS011;6149;52.418;13.668;2022-09-04T00:24:58;2.87;;;1.70;;
12171;SDS011;6149;52.418;13.668;2022-09-04T00:27:37;2.93;;;1.93;;
12171;SDS011;6149;52.418;13.668;2022-09-04T00:30:10;2.27;;;1.87;;
12171;SDS011;6149;52.418;13.668;2022-09-04T00:32:42;4.03;;;1.90;;
12171;SDS011;6149;52.418;13.668;2022-09-04T00:35:17;4.13;;;2.00;;
12171;SDS011;6149;52.418;13.668;2022-09-04T00:37:49;2.57;;;1.90;;
12171;SDS011;6149;52.418;13.668;2022-09-04T00:40:24;3.07;;;2.00;;
12171;SDS011;6149;52.418;13.668;2022-09-04T00:43:12;4.27;;;2.20;;
12171;SDS011;6149;52.418;13.668;2022-09-04T00:46:34;3.87;;;1.77;;
12171;SDS011;6149;52.418;13.668;2022-09-04T00:49:33;6.93;;;2.40;;
12171;SDS011;6149;52.418;13.668;2022-09-04T00:52:18;3.70;;;1.83;;
12171;SDS011;6149;52.418;13.668;2022-09-04T00:55:06;2.10;;;1.90;;
12171;SDS011;6149;52.418;13.668;2022-09-04T00:57:49;4.03;;;1.80;;
12171;SDS011;6149;52.418;13.668;2022-09-04T01:00:29;2.40;;;1.67;;
12171;SDS011;6149;52.418;13.668;2022-09-04T01:03:02;2.83;;;1.67;;
12171;SDS011;6149;52.418;13.668;2022-09-04T01:05:48;2.13;;;1.50;;
12171;SDS011;6149;52.418;13.668;2022-09-04T01:08:37;3.63;;;1.47;;
12171;SDS011;6149;52.418;13.668;2022-09-04T01:11:24;2.60;;;1.60;;
12171;SDS011;6149;52.418;13.668;2022-09-04T01:14:04;5.50;;;1.63;;
12171;SDS011;6149;52.418;13.668;2022-09-04T01:16:39;2.73;;;1.50;;
12171;SDS011;6149;52.418;13.668;2022-09-04T01:19:17;4.70;;;1.77;;
12171;SDS011;6149;52.418;13.668;2022-09-04T01:22:02;2.10;;;1.70;;
12171;SDS011;6149;52.418;13.668;2022-09-04T01:24:47;4.93;;;1.70;;
12171;SDS011;6149;52.418;13.668;2022-09-04T01:27:29;2.00;;;1.57;;
12171;SDS011;6149;52.418;13.668;2022-09-04T01:30:04;1.90;;;1.70;;
12171;SDS011;6149;52.418;13.668;2022-09-04T01:32:38;3.60;;;1.43;;
12171;SDS011;6149;52.418;13.668;2022-09-04T01:35:16;2.07;;;1.60;;
12171;SDS011;6149;52.418;13.668;2022-09-04T01:37:58;2.03;;;1.60;;
12171;SDS011;6149;52.418;13.668;2022-09-04T01:40:33;3.27;;;1.63;;
12171;SDS011;6149;52.418;13.668;2022-09-04T01:43:09;4.13;;;1.50;;
12171;SDS011;6149;52.418;13.668;2022-09-04T01:45:43;2.87;;;1.63;;
12171;SDS011;6149;52.418;13.668;2022-09-04T01:48:26;2.43;;;1.50;;
12171;SDS011;6149;52.418;13.668;2022-09-04T01:51:04;2.03;;;1.53;;
12171;SDS011;6149;52.418;13.668;2022-09-04T01:53:40;2.87;;;1.40;;
12171;SDS011;6149;52.418;13.668;2022-09-04T01:56:12;2.70;;;1.47;;
12171;SDS011;6149;52.418;13.668;2022-09-04T01:58:49;2.33;;;1.30;;
12171;SDS011;6149;52.418;13.668;2022-09-04T02:01:22;1.63;;;1.50;;
12171;SDS011;6149;52.418;13.668;2022-09-04T02:03:56;2.27;;;1.50;;
12171;SDS011;6149;52.418;13.668;2022-09-04T02:06:34;5.13;;;1.50;;
12171;SDS011;6149;52.418;13.668;2022-09-04T02:09:15;1.63;;;1.30;;
12171;SDS011;6149;52.418;13.668;2022-09-04T02:11:58;3.00;;;1.40;;
12171;SDS011;6149;52.418;13.668;2022-09-04T02:14:38;2.33;;;1.50;;
12171;SDS011;6149;52.418;13.668;2022-09-04T02:17:10;1.53;;;1.20;;
12171;SDS011;6149;52.418;13.668;2022-09-04T02:19:54;1.63;;;1.33;;
12171;SDS011;6149;52.418;13.668;2022-09-04T02:22:33;2.20;;;1.37;;
12171;SDS011;6149;52.418;13.668;2022-09-04T02:25:09;2.30;;;1.50;;
12171;SDS011;6149;52.418;13.668;2022-09-04T02:27:50;3.83;;;1.50;;
12171;SDS011;6149;52.418;13.668;2022-09-04T02:30:28;2.77;;;1.13;;
12171;SDS011;6149;52.418;13.668;2022-09-04T02:33:02;2.90;;;1.53;;
12171;SDS011;6149;52.418;13.668;2022-09-04T02:35:41;1.90;;;1.30;;
12171;SDS011;6149;52.418;13.668;2022-09-04T02:38:14;3.47;;;1.60;;
12171;SDS011;6149;52.418;13.668;2022-09-04T02:40:49;3.73;;;1.70;;
12171;SDS011;6149;52.418;13.668;2022-09-04T02:43:23;1.83;;;1.40;;
12171;SDS011;6149;52.418;13.668;2022-09-04T02:46:06;3.67;;;1.70;;
12171;SDS011;6149;52.418;13.668;2022-09-04T02:48:42;5.10;;;1.50;;
12171;SDS011;6149;52.418;13.668;2022-09-04T02:51:27;2.97;;;1.60;;
12171;SDS011;6149;52.418;13.668;2022-09-04T02:54:22;3.73;;;1.60;;
12171;SDS011;6149;52.418;13.668;2022-09-04T02:57:03;2.37;;;1.50;;
12171;SDS011;6149;52.418;13.668;2022-09-04T02:59:46;3.20;;;1.40;;
12171;SDS011;6149;52.418;13.668;2022-09-04T03:02:30;2.13;;;1.30;;
12171;SDS011;6149;52.418;13.668;2022-09-04T03:05:03;1.77;;;1.30;;
12171;SDS011;6149;52.418;13.668;2022-09-04T03:07:40;3.27;;;1.47;;
12171;SDS011;6149;52.418;13.668;2022-09-04T03:10:16;2.17;;;1.20;;
12171;SDS011;6149;52.418;13.668;2022-09-04T03:12:46;3.67;;;1.40;;
12171;SDS011;6149;52.418;13.668;2022-09-04T03:15:19;3.47;;;1.60;;
12171;SDS011;6149;52.418;13.668;2022-09-04T03:17:54;2.90;;;1.30;;
12171;SDS011;6149;52.418;13.668;2022-09-04T03:20:29;2.00;;;1.30;;
12171;SDS011;6149;52.418;13.668;2022-09-04T03:23:00;3.27;;;1.50;;
12171;SDS011;6149;52.418;13.668;2022-09-04T03:25:44;2.97;;;1.40;;
12171;SDS011;6149;52.418;13.668;2022-09-04T03:28:28;1.63;;;1.20;;
12171;SDS011;6149;52.418;13.668;2022-09-04T03:31:12;2.10;;;1.30;;
12171;SDS011;6149;52.418;13.668;2022-09-04T03:33:55;4.70;;;1.20;;
12171;SDS011;6149;52.418;13.668;2022-09-04T03:36:37;2.00;;;1.30;;
12171;SDS011;6149;52.418;13.668;2022-09-04T03:39:19;1.60;;;1.27;;
12171;SDS011;6149;52.418;13.668;2022-09-04T03:41:55;2.10;;;1.40;;
12171;SDS011;6149;52.418;13.668;2022-09-04T03:44:34;2.10;;;1.47;;
12171;SDS011;6149;52.418;13.668;2022-09-04T03:47:20;2.80;;;1.30;;
12171;SDS011;6149;52.418;13.668;2022-09-04T03:50:03;2.30;;;1.30;;
12171;SDS011;6149;52.418;13.668;2022-09-04T03:52:44;2.90;;;1.37;;
12171;SDS011;6149;52.418;13.668;2022-09-04T03:55:29;3.33;;;1.60;;
12171;SDS011;6149;52.418;13.668;2022-09-04T03:58:14;1.90;;;1.07;;
12171;SDS011;6149;52.418;13.668;2022-09-04T04:00:50;1.70;;;1.43;;
12171;SDS011;6149;52.418;13.668;2022-09-04T04:03:27;3.00;;;1.47;;
12171;SDS011;6149;52.418;13.668;2022-09-04T04:06:16;2.30;;;1.20;;
12171;SDS011;6149;52.418;13.668;2022-09-04T04:09:00;1.87;;;1.10;;
12171;SDS011;6149;52.418;13.668;2022-09-04T04:12:03;4.03;;;1.40;;
12171;SDS011;6149;52.418;13.668;2022-09-04T04:14:55;2.33;;;1.00;;
12171;SDS011;6149;52.418;13.668;2022-09-04T04:17:37;1.97;;;1.30;;
12171;SDS011;6149;52.418;13.668;2022-09-04T04:20:24;2.50;;;1.20;;
12171;SDS011;6149;52.418;13.668;2022-09-04T04:23:24;3.00;;;1.30;;
12171;SDS011;6149;52.418;13.668;2022-09-04T04:26:13;2.30;;;1.20;;
12171;SDS011;6149;52.418;13.668;2022-09-04T04:28:57;2.60;;;1.33;;
12171;SDS011;6149;52.418;13.668;2022-09-04T04:31:58;1.90;;;1.23;;
12171;SDS011;6149;52.418;13.668;2022-09-04T04:34:48;3.90;;;1.30;;
12171;SDS011;6149;52.418;13.668;2022-09-04T04:37:35;1.70;;;1.20;;
12171;SDS011;6149;52.418;13.668;2022-09-04T04:40:20;1.80;;;1.20;;
12171;SDS011;6149;52.418;13.668;2022-09-04T04:42:58;2.60;;;1.20;;
12171;SDS011;6149;52.418;13.668;2022-09-04T04:45:34;3.00;;;1.20;;
12171;SDS011;6149;52.418;13.668;2022-09-04T04:48:27;2.83;;;1.50;;
12171;SDS011;6149;52.418;13.668;2022-09-04T04:51:34;2.60;;;1.10;;
12171;SDS011;6149;52.418;13.668;2022-09-04T04:54:41;2.40;;;1.10;;
12171;SDS011;6149;52.418;13.668;2022-09-04T04:57:26;3.57;;;1.10;;
12171;SDS011;6149;52.418;13.668;2022-09-04T05:00:04;2.63;;;1.27;;
12171;SDS011;6149;52.418;13.668;2022-09-04T05:02:45;3.40;;;1.27;;
12171;SDS011;6149;52.418;13.668;2022-09-04T05:05:40;1.87;;;1.40;;
12171;SDS011;6149;52.418;13.668;2022-09-04T05:08:19;2.90;;;1.50;;
12171;SDS011;6149;52.418;13.668;2022-09-04T05:10:55;1.77;;;1.13;;
12171;SDS011;6149;52.418;13.668;2022-09-04T05:13:35;2.07;;;1.13;;
12171;SDS011;6149;52.418;13.668;2022-09-04T05:16:11;1.30;;;0.97;;
12171;SDS011;6149;52.418;13.668;2022-09-04T05:18:48;3.47;;;1.40;;
12171;SDS011;6149;52.418;13.668;2022-09-04T05:21:22;2.60;;;1.33;;
12171;SDS011;6149;52.418;13.668;2022-09-04T05:23:57;2.50;;;1.40;;
12171;SDS011;6149;52.418;13.668;2022-09-04T05:26:32;1.93;;;1.20;;
12171;SDS011;6149;52.418;13.668;2022-09-04T05:29:09;1.77;;;1.40;;
12171;SDS011;6149;52.418;13.668;2022-09-04T05:31:43;2.20;;;1.30;;
12171;SDS011;6149;52.418;13.668;2022-09-04T05:34:19;1.50;;;1.20;;
12171;SDS011;6149;52.418;13.668;2022-09-04T05:36:58;1.47;;;1.07;;
12171;SDS011;6149;52.418;13.668;2022-09-04T05:39:35;2.13;;;1.27;;
12171;SDS011;6149;52.418;13.668;2022-09-04T05:42:30;3.77;;;1.70;;
12171;SDS011;6149;52.418;13.668;2022-09-04T05:45:12;1.77;;;1.30;;
12171;SDS011;6149;52.418;13.668;2022-09-04T05:47:52;2.50;;;1.40;;
12171;SDS011;6149;52.418;13.668;2022-09-04T05:50:35;3.00;;;1.40;;
12171;SDS011;6149;52.418;13.668;2022-09-04T05:53:27;3.47;;;1.20;;
12171;SDS011;6149;52.418;13.668;2022-09-04T05:56:18;2.70;;;1.47;;
12171;SDS011;6149;52.418;13.668;2022-09-04T05:59:16;2.77;;;1.33;;
12171;SDS011;6149;52.418;13.668;2022-09-04T06:05:23;2.50;;;1.53;;
12171;SDS011;6149;52.418;13.668;2022-09-04T06:08:00;1.53;;;1.30;;
12171;SDS011;6149;52.418;13.668;2022-09-04T06:10:42;1.80;;;1.50;;
12171;SDS011;6149;52.418;13.668;2022-09-04T06:13:22;3.17;;;1.30;;
12171;SDS011;6149;52.418;13.668;2022-09-04T06:16:13;2.60;;;1.30;;
12171;SDS011;6149;52.418;13.668;2022-09-04T06:19:02;2.03;;;1.43;;
12171;SDS011;6149;52.418;13.668;2022-09-04T06:21:56;2.47;;;1.60;;
12171;SDS011;6149;52.418;13.668;2022-09-04T06:24:43;3.23;;;1.70;;
12171;SDS011;6149;52.418;13.668;2022-09-04T06:27:29;2.87;;;1.40;;
12171;SDS011;6149;52.418;13.668;2022-09-04T06:30:13;2.83;;;1.43;;
12171;SDS011;6149;52.418;13.668;2022-09-04T06:32:54;2.37;;;1.33;;
12171;SDS011;6149;52.418;13.668;2022-09-04T06:35:49;4.80;;;1.60;;
12171;SDS011;6149;52.418;13.668;2022-09-04T06:38:52;3.20;;;1.70;;
12171;SDS011;6149;52.418;13.668;2022-09-04T06:41:38;3.07;;;1.70;;
12171;SDS011;6149;52.418;13.668;2022-09-04T06:44:25;4.17;;;1.80;;
12171;SDS011;6149;52.418;13.668;2022-09-04T06:47:13;2.77;;;1.70;;
12171;SDS011;6149;52.418;13.668;2022-09-04T06:49:54;4.23;;;2.00;;
12171;SDS011;6149;52.418;13.668;2022-09-04T06:52:39;2.57;;;1.90;;
12171;SDS011;6149;52.418;13.668;2022-09-04T06:55:20;2.17;;;1.70;;
12171;SDS011;6149;52.418;13.668;2022-09-04T06:58:01;4.00;;;2.17;;
12171;SDS011;6149;52.418;13.668;2022-09-04T07:00:50;3.10;;;1.90;;
12171;SDS011;6149;52.418;13.668;2022-09-04T07:06:13;3.37;;;1.80;;
12171;SDS011;6149;52.418;13.668;2022-09-04T07:08:49;4.23;;;1.70;;
12171;SDS011;6149;52.418;13.668;2022-09-04T07:11:31;3.43;;;2.00;;
12171;SDS011;6149;52.418;13.668;2022-09-04T07:14:18;3.30;;;1.87;;
12171;SDS011;6149;52.418;13.668;2022-09-04T07:17:17;2.10;;;1.90;;
12171;SDS011;6149;52.418;13.668;2022-09-04T07:19:53;2.63;;;2.10;;
12171;SDS011;6149;52.418;13.668;2022-09-04T07:25:50;2.63;;;2.10;;
12171;SDS011;6149;52.418;13.668;2022-09-04T07:31:28;4.33;;;2.20;;
12171;SDS011;6149;52.418;13.668;2022-09-04T07:34:00;3.17;;;2.20;;
12171;SDS011;6149;52.418;13.668;2022-09-04T07:36:40;4.53;;;2.40;;
12171;SDS011;6149;52.418;13.668;2022-09-04T07:39:16;3.07;;;2.33;;
12171;SDS011;6149;52.418;13.668;2022-09-04T07:41:52;2.73;;;2.17;;
12171;SDS011;6149;52.418;13.668;2022-09-04T07:44:28;3.63;;;2.17;;
12171;SDS011;6149;52.418;13.668;2022-09-04T07:47:08;3.97;;;2.60;;
12171;SDS011;6149;52.418;13.668;2022-09-04T07:49:46;3.83;;;2.10;;
12171;SDS011;6149;52.418;13.668;2022-09-04T07:52:27;3.83;;;2.50;;
12171;SDS011;6149;52.418;13.668;2022-09-04T07:55:11;4.33;;;2.53;;
12171;SDS011;6149;52.418;13.668;2022-09-04T07:57:54;3.20;;;2.70;;
12171;SDS011;6149;52.418;13.668;2022-09-04T08:00:56;3.43;;;2.53;;
12171;SDS011;6149;52.418;13.668;2022-09-04T08:04:04;2.80;;;2.40;;
12171;SDS011;6149;52.418;13.668;2022-09-04T08:06:55;2.87;;;2.50;;
12171;SDS011;6149;52.418;13.668;2022-09-04T08:09:29;3.93;;;2.43;;
12171;SDS011;6149;52.418;13.668;2022-09-04T08:12:26;2.93;;;2.50;;
12171;SDS011;6149;52.418;13.668;2022-09-04T08:15:25;3.60;;;2.57;;
12171;SDS011;6149;52.418;13.668;2022-09-04T08:18:14;4.47;;;2.80;;
12171;SDS011;6149;52.418;13.668;2022-09-04T08:20:54;3.97;;;2.63;;
12171;SDS011;6149;52.418;13.668;2022-09-04T08:23:45;3.87;;;2.37;;
12171;SDS011;6149;52.418;13.668;2022-09-04T08:26:38;3.63;;;2.80;;
12171;SDS011;6149;52.418;13.668;2022-09-04T08:29:25;3.40;;;2.47;;
12171;SDS011;6149;52.418;13.668;2022-09-04T08:32:17;4.53;;;2.87;;
12171;SDS011;6149;52.418;13.668;2022-09-04T08:35:25;3.70;;;2.60;;
12171;SDS011;6149;52.418;13.668;2022-09-04T08:38:04;3.57;;;2.40;;
12171;SDS011;6149;52.418;13.668;2022-09-04T08:40:59;3.50;;;2.63;;
12171;SDS011;6149;52.418;13.668;2022-09-04T08:44:26;4.37;;;2.70;;
12171;SDS011;6149;52.418;13.668;2022-09-04T08:47:28;3.40;;;2.43;;
12171;SDS011;6149;52.418;13.668;2022-09-04T08:51:08;4.03;;;2.50;;
12171;SDS011;6149;52.418;13.668;2022-09-04T08:57:48;3.23;;;2.50;;
12171;SDS011;6149;52.418;13.668;2022-09-04T09:00:43;2.57;;;2.37;;
12171;SDS011;6149;52.418;13.668;2022-09-04T09:03:50;3.67;;;2.30;;
12171;SDS011;6149;52.418;13.668;2022-09-04T09:06:43;2.57;;;2.33;;
12171;SDS011;6149;52.418;13.668;2022-09-04T09:09:42;2.50;;;2.30;;
12171;SDS011;6149;52.418;13.668;2022-09-04T09:13:00;3.40;;;2.30;;
12171;SDS011;6149;52.418;13.668;2022-09-04T09:16:09;3.03;;;2.70;;
12171;SDS011;6149;52.418;13.668;2022-09-04T09:19:01;2.80;;;2.20;;
12171;SDS011;6149;52.418;13.668;2022-09-04T09:21:43;3.63;;;2.50;;
12171;SDS011;6149;52.418;13.668;2022-09-04T09:31:01;4.10;;;2.10;;
12171;SDS011;6149;52.418;13.668;2022-09-04T09:37:19;4.50;;;2.30;;
12171;SDS011;6149;52.418;13.668;2022-09-04T09:40:28;3.07;;;2.40;;
12171;SDS011;6149;52.418;13.668;2022-09-04T09:46:52;2.43;;;2.23;;
12171;SDS011;6149;52.418;13.668;2022-09-04T09:50:03;3.17;;;2.20;;
12171;SDS011;6149;52.418;13.668;2022-09-04T09:53:10;2.10;;;1.90;;
12171;SDS011;6149;52.418;13.668;2022-09-04T10:02:42;2.90;;;2.10;;
12171;SDS011;6149;52.418;13.668;2022-09-04T10:05:49;2.70;;;2.30;;
12171;SDS011;6149;52.418;13.668;2022-09-04T10:08:43;3.23;;;2.00;;
12171;SDS011;6149;52.418;13.668;2022-09-04T10:11:48;3.67;;;2.20;;
12171;SDS011;6149;52.418;13.668;2022-09-04T10:14:51;2.30;;;2.10;;
12171;SDS011;6149;52.418;13.668;2022-09-04T10:21:13;2.53;;;2.23;;
12171;SDS011;6149;52.418;13.668;2022-09-04T10:24:04;3.43;;;2.27;;
12171;SDS011;6149;52.418;13.668;2022-09-04T10:27:03;3.10;;;2.20;;
12171;SDS011;6149;52.418;13.668;2022-09-04T10:30:06;4.43;;;2.20;;
12171;SDS011;6149;52.418;13.668;2022-09-04T10:32:46;4.33;;;2.43;;
12171;SDS011;6149;52.418;13.668;2022-09-04T10:35:36;3.50;;;2.30;;
12171;SDS011;6149;52.418;13.668;2022-09-04T10:38:24;2.57;;;2.37;;
12171;SDS011;6149;52.418;13.668;2022-09-04T10:41:38;2.63;;;2.40;;
12171;SDS011;6149;52.418;13.668;2022-09-04T10:44:29;2.60;;;2.40;;
12171;SDS011;6149;52.418;13.668;2022-09-04T10:47:10;2.60;;;2.20;;
12171;SDS011;6149;52.418;13.668;2022-09-04T10:49:56;3.03;;;2.10;;
12171;SDS011;6149;52.418;13.668;2022-09-04T10:52:39;2.57;;;2.37;;
12171;SDS011;6149;52.418;13.668;2022-09-04T10:55:40;3.07;;;2.60;;
12171;SDS011;6149;52.418;13.668;2022-09-04T10:58:27;2.73;;;2.53;;
12171;SDS011;6149;52.418;13.668;2022-09-04T11:01:12;2.53;;;2.23;;
12171;SDS011;6149;52.418;13.668;2022-09-04T11:04:35;2.47;;;2.20;;
12171;SDS011;6149;52.418;13.668;2022-09-04T11:07:41;3.30;;;2.30;;
12171;SDS011;6149;52.418;13.668;2022-09-04T11:10:44;5.10;;;2.80;;
12171;SDS011;6149;52.418;13.668;2022-09-04T11:16:40;3.43;;;2.00;;
12171;SDS011;6149;52.418;13.668;2022-09-04T11:22:45;2.37;;;2.03;;
12171;SDS011;6149;52.418;13.668;2022-09-04T11:29:20;2.90;;;2.40;;
12171;SDS011;6149;52.418;13.668;2022-09-04T11:32:14;2.20;;;1.93;;
12171;SDS011;6149;52.418;13.668;2022-09-04T11:38:16;2.33;;;2.10;;
12171;SDS011;6149;52.418;13.668;2022-09-04T11:44:54;3.03;;;1.90;;
12171;SDS011;6149;52.418;13.668;2022-09-04T11:47:47;3.60;;;2.40;;
12171;SDS011;6149;52.418;13.668;2022-09-04T11:51:01;4.07;;;2.40;;
12171;SDS011;6149;52.418;13.668;2022-09-04T11:57:01;3.53;;;2.50;;
12171;SDS011;6149;52.418;13.668;2022-09-04T11:59:54;2.27;;;1.90;;
12171;SDS011;6149;52.418;13.668;2022-09-04T12:06:01;3.33;;;2.07;;
12171;SDS011;6149;52.418;13.668;2022-09-04T12:09:01;2.47;;;2.10;;
12171;SDS011;6149;52.418;13.668;2022-09-04T12:12:14;3.23;;;2.07;;
12171;SDS011;6149;52.418;13.668;2022-09-04T12:15:07;2.40;;;2.20;;
12171;SDS011;6149;52.418;13.668;2022-09-04T12:21:25;3.20;;;2.10;;
12171;SDS011;6149;52.418;13.668;2022-09-04T12:27:46;2.80;;;2.10;;
12171;SDS011;6149;52.418;13.668;2022-09-04T12:30:46;3.17;;;2.20;;
12171;SDS011;6149;52.418;13.668;2022-09-04T12:33:34;2.63;;;2.37;;
12171;SDS011;6149;52.418;13.668;2022-09-04T12:36:44;2.10;;;1.90;;
12171;SDS011;6149;52.418;13.668;2022-09-04T12:39:57;5.27;;;2.03;;
12171;SDS011;6149;52.418;13.668;2022-09-04T12:42:56;2.50;;;2.00;;
12171;SDS011;6149;52.418;13.668;2022-09-04T12:45:47;2.20;;;2.00;;
12171;SDS011;6149;52.418;13.668;2022-09-04T12:48:28;4.10;;;2.03;;
12171;SDS011;6149;52.418;13.668;2022-09-04T12:51:05;2.10;;;1.73;;
12171;SDS011;6149;52.418;13.668;2022-09-04T12:53:41;3.03;;;2.17;;
12171;SDS011;6149;52.418;13.668;2022-09-04T12:56:20;4.13;;;2.17;;
12171;SDS011;6149;52.418;13.668;2022-09-04T12:59:05;3.10;;;2.17;;
12171;SDS011;6149;52.418;13.668;2022-09-04T13:01:49;2.20;;;2.00;;
12171;SDS011;6149;52.418;13.668;2022-09-04T13:04:28;3.00;;;2.20;;
12171;SDS011;6149;52.418;13.668;2022-09-04T13:07:08;2.70;;;2.20;;
12171;SDS011;6149;52.418;13.668;2022-09-04T13:09:51;3.33;;;2.13;;
12171;SDS011;6149;52.418;13.668;2022-09-04T13:12:28;2.53;;;2.33;;
12171;SDS011;6149;52.418;13.668;2022-09-04T13:15:13;2.57;;;2.37;;
12171;SDS011;6149;52.418;13.668;2022-09-04T13:17:52;2.33;;;1.97;;
12171;SDS011;6149;52.418;13.668;2022-09-04T13:20:37;4.70;;;2.20;;
12171;SDS011;6149;52.418;13.668;2022-09-04T13:23:16;3.17;;;2.27;;
12171;SDS011;6149;52.418;13.668;2022-09-04T13:26:02;3.63;;;2.20;;
12171;SDS011;6149;52.418;13.668;2022-09-04T13:28:48;3.53;;;2.20;;
12171;SDS011;6149;52.418;13.668;2022-09-04T13:31:30;2.70;;;2.13;;
12171;SDS011;6149;52.418;13.668;2022-09-04T13:34:15;2.53;;;2.10;;
12171;SDS011;6149;52.418;13.668;2022-09-04T13:36:51;3.87;;;2.40;;
12171;SDS011;6149;52.418;13.668;2022-09-04T13:39:38;2.50;;;2.00;;
12171;SDS011;6149;52.418;13.668;2022-09-04T13:42:31;2.57;;;2.13;;
12171;SDS011;6149;52.418;13.668;2022-09-04T13:45:30;2.50;;;2.30;;
12171;SDS011;6149;52.418;13.668;2022-09-04T13:48:05;2.97;;;2.33;;
12171;SDS011;6149;52.418;13.668;2022-09-04T13:50:36;2.83;;;2.07;;
12171;SDS011;6149;52.418;13.668;2022-09-04T13:53:10;3.93;;;2.00;;
12171;SDS011;6149;52.418;13.668;2022-09-04T13:55:44;4.17;;;2.00;;
12171;SDS011;6149;52.418;13.668;2022-09-04T13:58:15;2.90;;;2.10;;
12171;SDS011;6149;52.418;13.668;2022-09-04T14:00:45;3.57;;;2.40;;
12171;SDS011;6149;52.418;13.668;2022-09-04T14:03:27;2.93;;;2.30;;
12171;SDS011;6149;52.418;13.668;2022-09-04T14:06:00;3.13;;;2.07;;
12171;SDS011;6149;52.418;13.668;2022-09-04T14:08:30;3.27;;;2.20;;
12171;SDS011;6149;52.418;13.668;2022-09-04T14:11:24;3.80;;;2.20;;
12171;SDS011;6149;52.418;13.668;2022-09-04T14:14:30;3.27;;;2.30;;
12171;SDS011;6149;52.418;13.668;2022-09-04T14:17:18;2.53;;;2.27;;
12171;SDS011;6149;52.418;13.668;2022-09-04T14:19:56;2.37;;;2.17;;
12171;SDS011;6149;52.418;13.668;2022-09-04T14:22:31;2.30;;;2.10;;
12171;SDS011;6149;52.418;13.668;2022-09-04T14:25:13;3.43;;;2.20;;
12171;SDS011;6149;52.418;13.668;2022-09-04T14:27:47;3.53;;;2.17;;
12171;SDS011;6149;52.418;13.668;2022-09-04T14:30:22;2.73;;;2.10;;
12171;SDS011;6149;52.418;13.668;2022-09-04T14:32:53;4.33;;;2.27;;
12171;SDS011;6149;52.418;13.668;2022-09-04T14:35:35;2.87;;;2.07;;
12171;SDS011;6149;52.418;13.668;2022-09-04T14:41:09;4.00;;;2.10;;
12171;SDS011;6149;52.418;13.668;2022-09-04T14:43:53;3.13;;;2.30;;
12171;SDS011;6149;52.418;13.668;2022-09-04T14:46:32;2.43;;;2.00;;
12171;SDS011;6149;52.418;13.668;2022-09-04T14:49:07;2.30;;;2.10;;
12171;SDS011;6149;52.418;13.668;2022-09-04T14:51:41;3.07;;;2.23;;
12171;SDS011;6149;52.418;13.668;2022-09-04T14:54:13;2.40;;;2.13;;
12171;SDS011;6149;52.418;13.668;2022-09-04T14:56:43;3.23;;;2.33;;
12171;SDS011;6149;52.418;13.668;2022-09-04T14:59:15;2.50;;;2.10;;
12171;SDS011;6149;52.418;13.668;2022-09-04T15:01:57;2.77;;;2.00;;
12171;SDS011;6149;52.418;13.668;2022-09-04T15:04:41;2.87;;;2.20;;
12171;SDS011;6149;52.418;13.668;2022-09-04T15:07:17;3.50;;;2.20;;
12171;SDS011;6149;52.418;13.668;2022-09-04T15:10:02;3.43;;;2.20;;
12171;SDS011;6149;52.418;13.668;2022-09-04T15:12:42;2.20;;;2.00;;
12171;SDS011;6149;52.418;13.668;2022-09-04T15:15:17;2.30;;;2.10;;
12171;SDS011;6149;52.418;13.668;2022-09-04T15:17:49;2.10;;;1.90;;
12171;SDS011;6149;52.418;13.668;2022-09-04T15:20:26;5.47;;;2.20;;
12171;SDS011;6149;52.418;13.668;2022-09-04T15:23:03;2.30;;;1.80;;
12171;SDS011;6149;52.418;13.668;2022-09-04T15:25:41;2.30;;;2.00;;
12171;SDS011;6149;52.418;13.668;2022-09-04T15:28:16;2.33;;;2.13;;
12171;SDS011;6149;52.418;13.668;2022-09-04T15:30:58;2.87;;;2.10;;
12171;SDS011;6149;52.418;13.668;2022-09-04T15:33:33;3.00;;;2.37;;
12171;SDS011;6149;52.418;13.668;2022-09-04T15:36:01;4.40;;;2.30;;
12171;SDS011;6149;52.418;13.668;2022-09-04T15:38:34;2.93;;;2.30;;
12171;SDS011;6149;52.418;13.668;2022-09-04T15:41:04;2.47;;;2.10;;
12171;SDS011;6149;52.418;13.668;2022-09-04T15:43:45;3.00;;;2.03;;
12171;SDS011;6149;52.418;13.668;2022-09-04T15:46:27;2.73;;;1.80;;
12171;SDS011;6149;52.418;13.668;2022-09-04T15:49:15;2.97;;;2.03;;
12171;SDS011;6149;52.418;13.668;2022-09-04T15:51:54;2.20;;;1.97;;
12171;SDS011;6149;52.418;13.668;2022-09-04T15:54:49;3.80;;;1.97;;
12171;SDS011;6149;52.418;13.668;2022-09-04T15:57:42;3.27;;;2.33;;
12171;SDS011;6149;52.418;13.668;2022-09-04T16:00:20;2.10;;;1.90;;
12171;SDS011;6149;52.418;13.668;2022-09-04T16:02:52;3.00;;;2.07;;
12171;SDS011;6149;52.418;13.668;2022-09-04T16:05:31;2.77;;;2.00;;
12171;SDS011;6149;52.418;13.668;2022-09-04T16:08:12;2.77;;;2.10;;
12171;SDS011;6149;52.418;13.668;2022-09-04T16:10:53;2.10;;;1.90;;
12171;SDS011;6149;52.418;13.668;2022-09-04T16:13:31;2.40;;;1.90;;
12171;SDS011;6149;52.418;13.668;2022-09-04T16:16:08;3.03;;;2.00;;
12171;SDS011;6149;52.418;13.668;2022-09-04T16:18:48;2.30;;;1.90;;
12171;SDS011;6149;52.418;13.668;2022-09-04T16:21:27;2.53;;;1.97;;
12171;SDS011;6149;52.418;13.668;2022-09-04T16:24:06;4.43;;;2.30;;
12171;SDS011;6149;52.418;13.668;2022-09-04T16:26:38;3.20;;;2.20;;
12171;SDS011;6149;52.418;13.668;2022-09-04T16:29:06;2.87;;;2.00;;
12171;SDS011;6149;52.418;13.668;2022-09-04T16:31:50;3.00;;;2.00;;
12171;SDS011;6149;52.418;13.668;2022-09-04T16:34:21;2.50;;;2.03;;
12171;SDS011;6149;52.418;13.668;2022-09-04T16:36:52;2.43;;;2.00;;
12171;SDS011;6149;52.418;13.668;2022-09-04T16:39:27;2.30;;;1.97;;
12171;SDS011;6149;52.418;13.668;2022-09-04T16:42:09;2.87;;;1.90;;
12171;SDS011;6149;52.418;13.668;2022-09-04T16:44:43;2.27;;;1.90;;
12171;SDS011;6149;52.418;13.668;2022-09-04T16:47:17;4.60;;;2.00;;
12171;SDS011;6149;52.418;13.668;2022-09-04T16:49:50;2.77;;;2.37;;
12171;SDS011;6149;52.418;13.668;2022-09-04T16:52:28;2.60;;;2.40;;
12171;SDS011;6149;52.418;13.668;2022-09-04T16:55:09;2.60;;;2.40;;
12171;SDS011;6149;52.418;13.668;2022-09-04T16:57:45;2.23;;;2.03;;
12171;SDS011;6149;52.418;13.668;2022-09-04T17:00:26;4.27;;;2.10;;
12171;SDS011;6149;52.418;13.668;2022-09-04T17:02:57;3.03;;;2.73;;
12171;SDS011;6149;52.418;13.668;2022-09-04T17:05:31;3.50;;;3.20;;
12171;SDS011;6149;52.418;13.668;2022-09-04T17:08:11;3.60;;;2.63;;
12171;SDS011;6149;52.418;13.668;2022-09-04T17:10:44;3.37;;;2.43;;
12171;SDS011;6149;52.418;13.668;2022-09-04T17:13:18;4.13;;;2.60;;
12171;SDS011;6149;52.418;13.668;2022-09-04T17:15:54;3.33;;;2.20;;
12171;SDS011;6149;52.418;13.668;2022-09-04T17:18:24;3.17;;;2.20;;
12171;SDS011;6149;52.418;13.668;2022-09-04T17:20:56;3.30;;;2.43;;
12171;SDS011;6149;52.418;13.668;2022-09-04T17:23:29;3.03;;;2.10;;
12171;SDS011;6149;52.418;13.668;2022-09-04T17:26:02;3.23;;;2.03;;
12171;SDS011;6149;52.418;13.668;2022-09-04T17:28:39;2.17;;;1.90;;
12171;SDS011;6149;52.418;13.668;2022-09-04T17:31:18;2.57;;;2.03;;
12171;SDS011;6149;52.418;13.668;2022-09-04T17:33:53;2.33;;;2.13;;
12171;SDS011;6149;52.418;13.668;2022-09-04T17:36:26;2.57;;;2.20;;
12171;SDS011;6149;52.418;13.668;2022-09-04T17:39:03;2.37;;;1.97;;
12171;SDS011;6149;52.418;13.668;2022-09-04T17:41:36;2.97;;;2.00;;